sensor_id;sensor_type;location;lat;lon;timestamp;temperature;humidity
6377;DHT22;3221;48.858;10.128;2024-02-23T00:00:02;7.10;99.90
6377;DHT22;3221;48.858;10.128;2024-02-23T00:02:32;6.90;99.90
6377;DHT22;3221;48.858;10.128;2024-02-23T00:04:59;6.80;99.90
6377;DHT22;3221;48.858;10.128;2024-02-23T00:07:26;6.80;99.90
6377;DHT22;3221;48.858;10.128;2024-02-23T00:09:53;6.80;99.90
6377;DHT22;3221;48.858;10.128;2024-02-23T00:12:20;6.70;99.90
6377;DHT22;3221;48.858;10.128;2024-02-23T00:14:47;6.60;99.90
6377;DHT22;3221;48.858;10.128;2024-02-23T00:17:13;6.70;99.90
6377;DHT22;3221;48.858;10.128;2024-02-23T00:19:40;6.50;99.90
6377;DHT22;3221;48.858;10.128;2024-02-23T00:22:07;6.50;99.90
6377;DHT22;3221;48.858;10.128;2024-02-23T00:24:35;6.40;99.90
6377;DHT22;3221;48.858;10.128;2024-02-23T00:27:03;6.30;99.90
6377;DHT22;3221;48.858;10.128;2024-02-23T00:29:30;6.30;99.90
6377;DHT22;3221;48.858;10.128;2024-02-23T00:31:57;6.20;99.90
6377;DHT22;3221;48.858;10.128;2024-02-23T00:34:24;6.30;99.90
6377;DHT22;3221;48.858;10.128;2024-02-23T00:36:51;6.20;99.90
6377;DHT22;3221;48.858;10.128;2024-02-23T00:39:18;6.20;99.90
6377;DHT22;3221;48.858;10.128;2024-02-23T00:41:45;6.30;99.90
6377;DHT22;3221;48.858;10.128;2024-02-23T00:44:12;6.20;99.90
6377;DHT22;3221;48.858;10.128;2024-02-23T00:46:39;6.20;99.90
6377;DHT22;3221;48.858;10.128;2024-02-23T00:49:06;6.20;99.90
6377;DHT22;3221;48.858;10.128;2024-02-23T00:51:33;6.20;99.90
6377;DHT22;3221;48.858;10.128;2024-02-23T00:54:00;6.20;99.90
6377;DHT22;3221;48.858;10.128;2024-02-23T00:56:26;6.20;99.90
6377;DHT22;3221;48.858;10.128;2024-02-23T00:59:06;6.20;99.90
6377;DHT22;3221;48.858;10.128;2024-02-23T01:01:33;6.20;99.90
6377;DHT22;3221;48.858;10.128;2024-02-23T01:04:00;6.10;99.90
6377;DHT22;3221;48.858;10.128;2024-02-23T01:06:27;6.10;99.90
6377;DHT22;3221;48.858;10.128;2024-02-23T01:08:55;6.30;99.90
6377;DHT22;3221;48.858;10.128;2024-02-23T01:11:22;6.20;99.90
6377;DHT22;3221;48.858;10.128;2024-02-23T01:13:49;6.10;99.90
6377;DHT22;3221;48.858;10.128;2024-02-23T01:16:16;6.10;99.90
6377;DHT22;3221;48.858;10.128;2024-02-23T01:18:43;6.00;99.90
6377;DHT22;3221;48.858;10.128;2024-02-23T01:21:10;6.10;99.90
6377;DHT22;3221;48.858;10.128;2024-02-23T01:23:36;6.10;99.90
6377;DHT22;3221;48.858;10.128;2024-02-23T01:26:03;6.10;99.90
6377;DHT22;3221;48.858;10.128;2024-02-23T01:28:30;6.00;99.90
6377;DHT22;3221;48.858;10.128;2024-02-23T01:30:57;6.10;99.90
6377;DHT22;3221;48.858;10.128;2024-02-23T01:33:24;6.00;99.90
6377;DHT22;3221;48.858;10.128;2024-02-23T01:35:51;6.00;99.90
6377;DHT22;3221;48.858;10.128;2024-02-23T01:38:18;6.10;99.90
6377;DHT22;3221;48.858;10.128;2024-02-23T01:40:48;6.10;99.90
6377;DHT22;3221;48.858;10.128;2024-02-23T01:43:15;5.90;99.90
6377;DHT22;3221;48.858;10.128;2024-02-23T01:45:42;6.10;99.90
6377;DHT22;3221;48.858;10.128;2024-02-23T01:48:09;5.90;99.90
6377;DHT22;3221;48.858;10.128;2024-02-23T01:50:37;6.00;99.90
6377;DHT22;3221;48.858;10.128;2024-02-23T01:53:05;6.00;99.90
6377;DHT22;3221;48.858;10.128;2024-02-23T01:55:32;6.00;99.90
6377;DHT22;3221;48.858;10.128;2024-02-23T01:58:04;6.00;99.90
6377;DHT22;3221;48.858;10.128;2024-02-23T02:00:35;6.00;99.90
6377;DHT22;3221;48.858;10.128;2024-02-23T02:03:04;5.90;99.90
6377;DHT22;3221;48.858;10.128;2024-02-23T02:05:36;5.90;99.90
6377;DHT22;3221;48.858;10.128;2024-02-23T02:08:04;5.90;99.90
6377;DHT22;3221;48.858;10.128;2024-02-23T02:10:36;5.90;99.90
6377;DHT22;3221;48.858;10.128;2024-02-23T02:13:03;5.90;99.90
6377;DHT22;3221;48.858;10.128;2024-02-23T02:15:31;5.90;99.90
6377;DHT22;3221;48.858;10.128;2024-02-23T02:17:58;5.90;99.90
6377;DHT22;3221;48.858;10.128;2024-02-23T02:20:25;5.80;99.90
6377;DHT22;3221;48.858;10.128;2024-02-23T02:22:54;5.90;99.90
6377;DHT22;3221;48.858;10.128;2024-02-23T02:25:21;5.50;99.90
6377;DHT22;3221;48.858;10.128;2024-02-23T02:27:48;5.70;99.90
6377;DHT22;3221;48.858;10.128;2024-02-23T02:30:15;5.80;99.90
6377;DHT22;3221;48.858;10.128;2024-02-23T02:32:42;5.70;99.90
6377;DHT22;3221;48.858;10.128;2024-02-23T02:35:11;5.60;99.90
6377;DHT22;3221;48.858;10.128;2024-02-23T02:37:39;5.70;99.90
6377;DHT22;3221;48.858;10.128;2024-02-23T02:40:06;5.70;99.90
6377;DHT22;3221;48.858;10.128;2024-02-23T02:42:34;5.60;99.90
6377;DHT22;3221;48.858;10.128;2024-02-23T02:45:01;5.60;99.90
6377;DHT22;3221;48.858;10.128;2024-02-23T02:47:29;5.60;99.90
6377;DHT22;3221;48.858;10.128;2024-02-23T02:49:57;5.60;99.90
6377;DHT22;3221;48.858;10.128;2024-02-23T02:52:24;5.50;99.90
6377;DHT22;3221;48.858;10.128;2024-02-23T02:54:51;5.60;99.90
6377;DHT22;3221;48.858;10.128;2024-02-23T02:57:18;5.50;99.90
6377;DHT22;3221;48.858;10.128;2024-02-23T02:59:44;5.40;99.90
6377;DHT22;3221;48.858;10.128;2024-02-23T03:02:12;5.50;99.90
6377;DHT22;3221;48.858;10.128;2024-02-23T03:04:46;5.50;99.90
6377;DHT22;3221;48.858;10.128;2024-02-23T03:07:13;5.40;99.90
6377;DHT22;3221;48.858;10.128;2024-02-23T03:09:40;5.40;99.90
6377;DHT22;3221;48.858;10.128;2024-02-23T03:12:06;5.40;99.90
6377;DHT22;3221;48.858;10.128;2024-02-23T03:14:33;5.40;99.90
6377;DHT22;3221;48.858;10.128;2024-02-23T03:17:04;5.40;99.90
6377;DHT22;3221;48.858;10.128;2024-02-23T03:19:31;5.40;99.90
6377;DHT22;3221;48.858;10.128;2024-02-23T03:21:59;5.30;99.90
6377;DHT22;3221;48.858;10.128;2024-02-23T03:24:26;5.40;99.90
6377;DHT22;3221;48.858;10.128;2024-02-23T03:26:53;5.30;99.90
6377;DHT22;3221;48.858;10.128;2024-02-23T03:29:21;5.30;99.90
6377;DHT22;3221;48.858;10.128;2024-02-23T03:31:51;5.30;99.90
6377;DHT22;3221;48.858;10.128;2024-02-23T03:34:18;5.30;99.90
6377;DHT22;3221;48.858;10.128;2024-02-23T03:36:45;5.30;99.90
6377;DHT22;3221;48.858;10.128;2024-02-23T03:39:11;5.30;99.90
6377;DHT22;3221;48.858;10.128;2024-02-23T03:41:38;5.20;99.90
6377;DHT22;3221;48.858;10.128;2024-02-23T03:44:05;5.30;99.90
6377;DHT22;3221;48.858;10.128;2024-02-23T03:46:32;5.30;99.90
6377;DHT22;3221;48.858;10.128;2024-02-23T03:48:59;5.30;99.90
6377;DHT22;3221;48.858;10.128;2024-02-23T03:51:26;5.40;99.90
6377;DHT22;3221;48.858;10.128;2024-02-23T03:53:53;5.20;99.90
6377;DHT22;3221;48.858;10.128;2024-02-23T03:56:20;5.20;99.90
6377;DHT22;3221;48.858;10.128;2024-02-23T03:58:46;5.20;99.90
6377;DHT22;3221;48.858;10.128;2024-02-23T04:01:13;5.20;99.90
6377;DHT22;3221;48.858;10.128;2024-02-23T04:03:40;5.20;99.90
6377;DHT22;3221;48.858;10.128;2024-02-23T04:06:07;5.30;99.90
6377;DHT22;3221;48.858;10.128;2024-02-23T04:08:35;5.20;99.90
6377;DHT22;3221;48.858;10.128;2024-02-23T04:11:02;5.20;99.90
6377;DHT22;3221;48.858;10.128;2024-02-23T04:13:29;5.10;99.90
6377;DHT22;3221;48.858;10.128;2024-02-23T04:15:56;5.20;99.90
6377;DHT22;3221;48.858;10.128;2024-02-23T04:18:24;5.30;99.90
6377;DHT22;3221;48.858;10.128;2024-02-23T04:20:51;5.20;99.90
6377;DHT22;3221;48.858;10.128;2024-02-23T04:23:18;5.20;99.90
6377;DHT22;3221;48.858;10.128;2024-02-23T04:25:44;5.20;99.90
6377;DHT22;3221;48.858;10.128;2024-02-23T04:28:11;5.20;99.90
6377;DHT22;3221;48.858;10.128;2024-02-23T04:30:38;5.20;99.90
6377;DHT22;3221;48.858;10.128;2024-02-23T04:33:05;5.20;99.90
6377;DHT22;3221;48.858;10.128;2024-02-23T04:35:32;5.00;99.90
6377;DHT22;3221;48.858;10.128;2024-02-23T04:37:59;5.10;99.90
6377;DHT22;3221;48.858;10.128;2024-02-23T04:40:28;5.10;99.90
6377;DHT22;3221;48.858;10.128;2024-02-23T04:42:54;5.10;99.90
6377;DHT22;3221;48.858;10.128;2024-02-23T04:45:21;5.20;99.90
6377;DHT22;3221;48.858;10.128;2024-02-23T04:47:48;5.10;99.90
6377;DHT22;3221;48.858;10.128;2024-02-23T04:50:15;5.10;99.90
6377;DHT22;3221;48.858;10.128;2024-02-23T04:52:42;5.10;99.90
6377;DHT22;3221;48.858;10.128;2024-02-23T04:55:09;5.00;99.90
6377;DHT22;3221;48.858;10.128;2024-02-23T04:57:37;5.10;99.90
6377;DHT22;3221;48.858;10.128;2024-02-23T05:00:05;5.10;99.90
6377;DHT22;3221;48.858;10.128;2024-02-23T05:02:34;5.00;99.90
6377;DHT22;3221;48.858;10.128;2024-02-23T05:05:03;5.00;99.90
6377;DHT22;3221;48.858;10.128;2024-02-23T05:07:31;5.00;99.90
6377;DHT22;3221;48.858;10.128;2024-02-23T05:09:59;5.00;99.90
6377;DHT22;3221;48.858;10.128;2024-02-23T05:12:26;5.10;99.90
6377;DHT22;3221;48.858;10.128;2024-02-23T05:14:53;5.00;99.90
6377;DHT22;3221;48.858;10.128;2024-02-23T05:17:20;5.00;99.90
6377;DHT22;3221;48.858;10.128;2024-02-23T05:19:47;5.10;99.90
6377;DHT22;3221;48.858;10.128;2024-02-23T05:22:14;5.00;99.90
6377;DHT22;3221;48.858;10.128;2024-02-23T05:24:41;5.00;99.90
6377;DHT22;3221;48.858;10.128;2024-02-23T05:27:08;4.80;99.90
6377;DHT22;3221;48.858;10.128;2024-02-23T05:29:35;4.80;99.90
6377;DHT22;3221;48.858;10.128;2024-02-23T05:32:02;4.90;99.90
6377;DHT22;3221;48.858;10.128;2024-02-23T05:34:28;4.90;99.90
6377;DHT22;3221;48.858;10.128;2024-02-23T05:36:56;4.80;99.90
6377;DHT22;3221;48.858;10.128;2024-02-23T05:39:23;4.90;99.90
6377;DHT22;3221;48.858;10.128;2024-02-23T05:41:50;4.90;99.90
6377;DHT22;3221;48.858;10.128;2024-02-23T05:44:17;4.90;99.90
6377;DHT22;3221;48.858;10.128;2024-02-23T05:46:44;4.80;99.90
6377;DHT22;3221;48.858;10.128;2024-02-23T05:49:11;4.90;99.90
6377;DHT22;3221;48.858;10.128;2024-02-23T05:51:39;5.00;99.90
6377;DHT22;3221;48.858;10.128;2024-02-23T05:54:05;4.90;99.90
6377;DHT22;3221;48.858;10.128;2024-02-23T05:56:32;4.90;99.90
6377;DHT22;3221;48.858;10.128;2024-02-23T05:59:00;4.90;99.90
6377;DHT22;3221;48.858;10.128;2024-02-23T06:01:27;4.90;99.90
6377;DHT22;3221;48.858;10.128;2024-02-23T06:03:54;5.00;99.90
6377;DHT22;3221;48.858;10.128;2024-02-23T06:06:21;5.00;99.90
6377;DHT22;3221;48.858;10.128;2024-02-23T06:08:49;5.00;99.90
6377;DHT22;3221;48.858;10.128;2024-02-23T06:11:16;4.90;99.90
6377;DHT22;3221;48.858;10.128;2024-02-23T06:13:43;4.90;99.90
6377;DHT22;3221;48.858;10.128;2024-02-23T06:16:11;4.80;99.90
6377;DHT22;3221;48.858;10.128;2024-02-23T06:18:41;4.80;99.90
6377;DHT22;3221;48.858;10.128;2024-02-23T06:21:15;4.70;99.90
6377;DHT22;3221;48.858;10.128;2024-02-23T06:23:42;4.90;99.90
6377;DHT22;3221;48.858;10.128;2024-02-23T06:26:09;4.80;99.90
6377;DHT22;3221;48.858;10.128;2024-02-23T06:28:36;4.80;99.90
6377;DHT22;3221;48.858;10.128;2024-02-23T06:31:09;4.80;99.90
6377;DHT22;3221;48.858;10.128;2024-02-23T06:33:36;4.80;99.90
6377;DHT22;3221;48.858;10.128;2024-02-23T06:36:03;4.80;99.90
6377;DHT22;3221;48.858;10.128;2024-02-23T06:38:31;4.90;99.90
6377;DHT22;3221;48.858;10.128;2024-02-23T06:40:58;4.80;99.90
6377;DHT22;3221;48.858;10.128;2024-02-23T06:43:25;4.60;99.90
6377;DHT22;3221;48.858;10.128;2024-02-23T06:45:52;4.70;99.90
6377;DHT22;3221;48.858;10.128;2024-02-23T06:48:19;4.70;99.90
6377;DHT22;3221;48.858;10.128;2024-02-23T06:50:46;4.80;99.90
6377;DHT22;3221;48.858;10.128;2024-02-23T06:53:13;4.60;99.90
6377;DHT22;3221;48.858;10.128;2024-02-23T06:55:40;4.60;99.90
6377;DHT22;3221;48.858;10.128;2024-02-23T06:58:08;4.60;99.90
6377;DHT22;3221;48.858;10.128;2024-02-23T07:00:37;4.50;99.90
6377;DHT22;3221;48.858;10.128;2024-02-23T07:03:05;4.50;99.90
6377;DHT22;3221;48.858;10.128;2024-02-23T07:05:32;4.50;99.90
6377;DHT22;3221;48.858;10.128;2024-02-23T07:07:59;4.50;99.90
6377;DHT22;3221;48.858;10.128;2024-02-23T07:10:26;4.50;99.90
6377;DHT22;3221;48.858;10.128;2024-02-23T07:12:53;4.50;99.90
6377;DHT22;3221;48.858;10.128;2024-02-23T07:15:21;4.60;99.90
6377;DHT22;3221;48.858;10.128;2024-02-23T07:17:48;4.60;99.90
6377;DHT22;3221;48.858;10.128;2024-02-23T07:20:15;4.60;99.90
6377;DHT22;3221;48.858;10.128;2024-02-23T07:22:46;4.50;99.90
6377;DHT22;3221;48.858;10.128;2024-02-23T07:25:20;4.70;99.90
6377;DHT22;3221;48.858;10.128;2024-02-23T07:27:48;4.80;99.90
6377;DHT22;3221;48.858;10.128;2024-02-23T07:30:18;4.70;99.90
6377;DHT22;3221;48.858;10.128;2024-02-23T07:32:45;4.70;99.90
6377;DHT22;3221;48.858;10.128;2024-02-23T07:35:19;4.70;99.90
6377;DHT22;3221;48.858;10.128;2024-02-23T07:37:46;4.70;99.90
6377;DHT22;3221;48.858;10.128;2024-02-23T07:40:13;4.50;99.90
6377;DHT22;3221;48.858;10.128;2024-02-23T07:42:44;4.50;99.90
6377;DHT22;3221;48.858;10.128;2024-02-23T07:45:12;4.50;99.90
6377;DHT22;3221;48.858;10.128;2024-02-23T07:47:39;4.50;99.90
6377;DHT22;3221;48.858;10.128;2024-02-23T07:50:06;4.50;99.90
6377;DHT22;3221;48.858;10.128;2024-02-23T07:52:34;4.50;99.90
6377;DHT22;3221;48.858;10.128;2024-02-23T07:55:01;4.50;99.90
6377;DHT22;3221;48.858;10.128;2024-02-23T07:57:29;4.60;99.90
6377;DHT22;3221;48.858;10.128;2024-02-23T07:59:58;4.50;99.90
6377;DHT22;3221;48.858;10.128;2024-02-23T08:02:25;4.40;99.90
6377;DHT22;3221;48.858;10.128;2024-02-23T08:04:52;4.40;99.90
6377;DHT22;3221;48.858;10.128;2024-02-23T08:07:19;4.50;99.90
6377;DHT22;3221;48.858;10.128;2024-02-23T08:09:46;4.40;99.90
6377;DHT22;3221;48.858;10.128;2024-02-23T08:12:13;4.60;99.90
6377;DHT22;3221;48.858;10.128;2024-02-23T08:14:41;4.60;99.90
6377;DHT22;3221;48.858;10.128;2024-02-23T08:17:10;4.70;99.90
6377;DHT22;3221;48.858;10.128;2024-02-23T08:19:37;4.60;99.90
6377;DHT22;3221;48.858;10.128;2024-02-23T08:22:04;4.80;99.90
6377;DHT22;3221;48.858;10.128;2024-02-23T08:24:31;4.70;99.90
6377;DHT22;3221;48.858;10.128;2024-02-23T08:26:58;4.80;99.90
6377;DHT22;3221;48.858;10.128;2024-02-23T08:29:26;4.80;99.90
6377;DHT22;3221;48.858;10.128;2024-02-23T08:31:53;4.60;99.90
6377;DHT22;3221;48.858;10.128;2024-02-23T08:34:20;4.70;99.90
6377;DHT22;3221;48.858;10.128;2024-02-23T08:36:48;4.80;99.90
6377;DHT22;3221;48.858;10.128;2024-02-23T08:39:15;4.60;99.90
6377;DHT22;3221;48.858;10.128;2024-02-23T08:41:41;4.60;99.90
6377;DHT22;3221;48.858;10.128;2024-02-23T08:44:08;4.50;99.90
6377;DHT22;3221;48.858;10.128;2024-02-23T08:46:35;4.50;99.90
6377;DHT22;3221;48.858;10.128;2024-02-23T08:49:05;4.60;99.90
6377;DHT22;3221;48.858;10.128;2024-02-23T08:51:32;4.40;99.90
6377;DHT22;3221;48.858;10.128;2024-02-23T08:53:59;4.50;99.90
6377;DHT22;3221;48.858;10.128;2024-02-23T08:56:31;4.50;99.90
6377;DHT22;3221;48.858;10.128;2024-02-23T08:58:58;4.40;99.90
6377;DHT22;3221;48.858;10.128;2024-02-23T09:01:26;4.40;99.90
6377;DHT22;3221;48.858;10.128;2024-02-23T09:03:53;4.30;99.90
6377;DHT22;3221;48.858;10.128;2024-02-23T09:06:19;4.40;99.90
6377;DHT22;3221;48.858;10.128;2024-02-23T09:08:46;4.30;99.90
6377;DHT22;3221;48.858;10.128;2024-02-23T09:11:14;4.20;99.90
6377;DHT22;3221;48.858;10.128;2024-02-23T09:13:42;4.30;99.90
6377;DHT22;3221;48.858;10.128;2024-02-23T09:16:09;4.30;99.90
6377;DHT22;3221;48.858;10.128;2024-02-23T09:18:36;4.40;99.90
6377;DHT22;3221;48.858;10.128;2024-02-23T09:21:03;4.40;99.90
6377;DHT22;3221;48.858;10.128;2024-02-23T09:23:30;4.50;99.90
6377;DHT22;3221;48.858;10.128;2024-02-23T09:25:57;4.40;99.90
6377;DHT22;3221;48.858;10.128;2024-02-23T09:28:24;4.50;99.90
6377;DHT22;3221;48.858;10.128;2024-02-23T09:30:51;4.70;99.90
6377;DHT22;3221;48.858;10.128;2024-02-23T09:33:20;4.60;99.90
6377;DHT22;3221;48.858;10.128;2024-02-23T09:35:47;4.60;99.90
6377;DHT22;3221;48.858;10.128;2024-02-23T09:38:14;4.50;99.90
6377;DHT22;3221;48.858;10.128;2024-02-23T09:40:41;4.40;99.90
6377;DHT22;3221;48.858;10.128;2024-02-23T09:43:08;4.30;99.90
6377;DHT22;3221;48.858;10.128;2024-02-23T09:45:38;4.30;99.90
6377;DHT22;3221;48.858;10.128;2024-02-23T09:48:05;4.30;99.90
6377;DHT22;3221;48.858;10.128;2024-02-23T09:50:34;4.30;99.90
6377;DHT22;3221;48.858;10.128;2024-02-23T09:53:01;4.30;99.90
6377;DHT22;3221;48.858;10.128;2024-02-23T09:55:31;4.30;99.90
6377;DHT22;3221;48.858;10.128;2024-02-23T09:57:58;4.40;99.90
6377;DHT22;3221;48.858;10.128;2024-02-23T10:00:27;4.30;99.90
6377;DHT22;3221;48.858;10.128;2024-02-23T10:02:54;4.20;99.90
6377;DHT22;3221;48.858;10.128;2024-02-23T10:05:31;4.30;99.90
6377;DHT22;3221;48.858;10.128;2024-02-23T10:08:04;4.30;99.90
6377;DHT22;3221;48.858;10.128;2024-02-23T10:10:34;4.20;99.90
6377;DHT22;3221;48.858;10.128;2024-02-23T10:13:05;4.20;99.90
6377;DHT22;3221;48.858;10.128;2024-02-23T10:15:32;4.50;99.90
6377;DHT22;3221;48.858;10.128;2024-02-23T10:17:59;4.20;99.90
6377;DHT22;3221;48.858;10.128;2024-02-23T10:20:26;4.10;99.90
6377;DHT22;3221;48.858;10.128;2024-02-23T10:22:53;4.30;99.90
6377;DHT22;3221;48.858;10.128;2024-02-23T10:25:21;4.20;99.90
6377;DHT22;3221;48.858;10.128;2024-02-23T10:27:48;4.20;99.90
6377;DHT22;3221;48.858;10.128;2024-02-23T10:30:15;4.30;99.90
6377;DHT22;3221;48.858;10.128;2024-02-23T10:32:42;4.40;99.90
6377;DHT22;3221;48.858;10.128;2024-02-23T10:35:16;4.50;99.90
6377;DHT22;3221;48.858;10.128;2024-02-23T10:37:44;4.40;99.90
6377;DHT22;3221;48.858;10.128;2024-02-23T10:40:16;4.30;99.90
6377;DHT22;3221;48.858;10.128;2024-02-23T10:42:44;4.40;99.90
6377;DHT22;3221;48.858;10.128;2024-02-23T10:45:18;4.30;99.90
6377;DHT22;3221;48.858;10.128;2024-02-23T10:47:47;4.30;99.90
6377;DHT22;3221;48.858;10.128;2024-02-23T10:50:14;4.30;99.90
6377;DHT22;3221;48.858;10.128;2024-02-23T10:52:42;4.20;99.90
6377;DHT22;3221;48.858;10.128;2024-02-23T10:55:10;4.30;99.90
6377;DHT22;3221;48.858;10.128;2024-02-23T10:57:37;4.30;99.90
6377;DHT22;3221;48.858;10.128;2024-02-23T11:00:07;4.20;99.90
6377;DHT22;3221;48.858;10.128;2024-02-23T11:02:50;4.20;99.90
6377;DHT22;3221;48.858;10.128;2024-02-23T11:05:19;4.20;99.90
6377;DHT22;3221;48.858;10.128;2024-02-23T11:07:46;4.20;99.90
6377;DHT22;3221;48.858;10.128;2024-02-23T11:10:16;4.10;99.90
6377;DHT22;3221;48.858;10.128;2024-02-23T11:12:43;4.10;99.90
6377;DHT22;3221;48.858;10.128;2024-02-23T11:15:29;4.20;99.90
6377;DHT22;3221;48.858;10.128;2024-02-23T11:17:56;4.30;99.90
6377;DHT22;3221;48.858;10.128;2024-02-23T11:20:23;4.30;99.90
6377;DHT22;3221;48.858;10.128;2024-02-23T11:22:56;4.20;99.90
6377;DHT22;3221;48.858;10.128;2024-02-23T11:25:27;4.30;99.90
6377;DHT22;3221;48.858;10.128;2024-02-23T11:27:54;4.10;99.90
6377;DHT22;3221;48.858;10.128;2024-02-23T11:30:21;4.20;99.90
6377;DHT22;3221;48.858;10.128;2024-02-23T11:32:48;4.20;99.90
6377;DHT22;3221;48.858;10.128;2024-02-23T11:35:16;4.20;99.90
6377;DHT22;3221;48.858;10.128;2024-02-23T11:37:52;4.20;99.90
6377;DHT22;3221;48.858;10.128;2024-02-23T11:40:28;4.20;99.90
6377;DHT22;3221;48.858;10.128;2024-02-23T11:42:55;4.20;99.90
6377;DHT22;3221;48.858;10.128;2024-02-23T11:45:23;4.10;99.90
6377;DHT22;3221;48.858;10.128;2024-02-23T11:47:50;4.10;99.90
6377;DHT22;3221;48.858;10.128;2024-02-23T11:50:18;4.10;99.90
6377;DHT22;3221;48.858;10.128;2024-02-23T11:52:47;4.10;99.90
6377;DHT22;3221;48.858;10.128;2024-02-23T11:55:21;4.10;99.90
6377;DHT22;3221;48.858;10.128;2024-02-23T11:57:50;4.10;99.90
6377;DHT22;3221;48.858;10.128;2024-02-23T12:00:30;4.10;99.90
6377;DHT22;3221;48.858;10.128;2024-02-23T12:02:58;4.10;99.90
6377;DHT22;3221;48.858;10.128;2024-02-23T12:05:25;4.00;99.90
6377;DHT22;3221;48.858;10.128;2024-02-23T12:07:52;4.00;99.90
6377;DHT22;3221;48.858;10.128;2024-02-23T12:10:20;4.00;99.90
6377;DHT22;3221;48.858;10.128;2024-02-23T12:12:47;4.00;99.90
6377;DHT22;3221;48.858;10.128;2024-02-23T12:15:14;4.00;99.90
6377;DHT22;3221;48.858;10.128;2024-02-23T12:17:48;4.10;99.90
6377;DHT22;3221;48.858;10.128;2024-02-23T12:20:15;4.00;99.90
6377;DHT22;3221;48.858;10.128;2024-02-23T12:22:43;4.00;99.90
6377;DHT22;3221;48.858;10.128;2024-02-23T12:25:12;4.10;99.90
6377;DHT22;3221;48.858;10.128;2024-02-23T12:27:39;4.10;99.90
6377;DHT22;3221;48.858;10.128;2024-02-23T12:30:13;4.20;99.90
6377;DHT22;3221;48.858;10.128;2024-02-23T12:32:41;4.00;99.90
6377;DHT22;3221;48.858;10.128;2024-02-23T12:35:11;3.90;99.90
6377;DHT22;3221;48.858;10.128;2024-02-23T12:37:39;4.00;99.90
6377;DHT22;3221;48.858;10.128;2024-02-23T12:40:10;4.10;99.90
6377;DHT22;3221;48.858;10.128;2024-02-23T12:42:37;4.10;99.90
6377;DHT22;3221;48.858;10.128;2024-02-23T12:45:04;4.10;99.90
6377;DHT22;3221;48.858;10.128;2024-02-23T12:47:31;4.20;99.90
6377;DHT22;3221;48.858;10.128;2024-02-23T12:49:58;4.20;99.90
6377;DHT22;3221;48.858;10.128;2024-02-23T12:52:25;4.20;99.90
6377;DHT22;3221;48.858;10.128;2024-02-23T12:54:52;4.20;99.90
6377;DHT22;3221;48.858;10.128;2024-02-23T12:57:19;4.10;99.90
6377;DHT22;3221;48.858;10.128;2024-02-23T12:59:46;4.10;99.90
6377;DHT22;3221;48.858;10.128;2024-02-23T13:02:13;4.10;99.90
6377;DHT22;3221;48.858;10.128;2024-02-23T13:04:40;4.10;99.90
6377;DHT22;3221;48.858;10.128;2024-02-23T13:07:08;4.10;99.90
6377;DHT22;3221;48.858;10.128;2024-02-23T13:09:35;4.10;99.90
6377;DHT22;3221;48.858;10.128;2024-02-23T13:12:01;4.10;99.90
6377;DHT22;3221;48.858;10.128;2024-02-23T13:14:29;4.10;99.90
6377;DHT22;3221;48.858;10.128;2024-02-23T13:16:56;4.10;99.90
6377;DHT22;3221;48.858;10.128;2024-02-23T13:19:22;4.10;99.90
6377;DHT22;3221;48.858;10.128;2024-02-23T13:21:49;4.00;99.90
6377;DHT22;3221;48.858;10.128;2024-02-23T13:24:16;4.00;99.90
6377;DHT22;3221;48.858;10.128;2024-02-23T13:26:43;4.00;99.90
6377;DHT22;3221;48.858;10.128;2024-02-23T13:29:11;4.00;99.90
6377;DHT22;3221;48.858;10.128;2024-02-23T13:31:38;4.10;99.90
6377;DHT22;3221;48.858;10.128;2024-02-23T13:34:06;4.00;99.90
6377;DHT22;3221;48.858;10.128;2024-02-23T13:36:33;4.00;99.90
6377;DHT22;3221;48.858;10.128;2024-02-23T13:39:00;4.00;99.90
6377;DHT22;3221;48.858;10.128;2024-02-23T13:41:27;4.10;99.90
6377;DHT22;3221;48.858;10.128;2024-02-23T13:43:54;4.10;99.90
6377;DHT22;3221;48.858;10.128;2024-02-23T13:46:22;4.20;99.90
6377;DHT22;3221;48.858;10.128;2024-02-23T13:49:10;4.20;99.90
6377;DHT22;3221;48.858;10.128;2024-02-23T13:51:39;4.30;99.90
6377;DHT22;3221;48.858;10.128;2024-02-23T13:54:06;4.20;99.90
6377;DHT22;3221;48.858;10.128;2024-02-23T13:56:33;4.20;99.90
6377;DHT22;3221;48.858;10.128;2024-02-23T13:59:00;4.30;99.90
6377;DHT22;3221;48.858;10.128;2024-02-23T14:01:27;4.20;99.90
6377;DHT22;3221;48.858;10.128;2024-02-23T14:03:54;4.20;99.90
6377;DHT22;3221;48.858;10.128;2024-02-23T14:06:21;4.20;99.90
6377;DHT22;3221;48.858;10.128;2024-02-23T14:08:48;4.20;99.90
6377;DHT22;3221;48.858;10.128;2024-02-23T14:11:15;4.20;99.90
6377;DHT22;3221;48.858;10.128;2024-02-23T14:13:42;4.20;99.90
6377;DHT22;3221;48.858;10.128;2024-02-23T14:16:14;4.20;99.90
6377;DHT22;3221;48.858;10.128;2024-02-23T14:18:42;4.20;99.90
6377;DHT22;3221;48.858;10.128;2024-02-23T14:21:11;4.20;99.90
6377;DHT22;3221;48.858;10.128;2024-02-23T14:23:38;4.20;99.90
6377;DHT22;3221;48.858;10.128;2024-02-23T14:26:05;4.20;99.90
6377;DHT22;3221;48.858;10.128;2024-02-23T14:28:31;4.20;99.90
6377;DHT22;3221;48.858;10.128;2024-02-23T14:30:59;4.30;99.90
6377;DHT22;3221;48.858;10.128;2024-02-23T14:33:26;4.20;99.90
6377;DHT22;3221;48.858;10.128;2024-02-23T14:35:53;4.20;99.90
6377;DHT22;3221;48.858;10.128;2024-02-23T14:38:20;4.20;99.90
6377;DHT22;3221;48.858;10.128;2024-02-23T14:40:47;4.30;99.90
6377;DHT22;3221;48.858;10.128;2024-02-23T14:43:14;4.20;99.90
6377;DHT22;3221;48.858;10.128;2024-02-23T14:45:41;4.20;99.90
6377;DHT22;3221;48.858;10.128;2024-02-23T14:48:08;4.20;99.90
6377;DHT22;3221;48.858;10.128;2024-02-23T14:50:35;4.20;99.90
6377;DHT22;3221;48.858;10.128;2024-02-23T14:53:02;4.30;99.90
6377;DHT22;3221;48.858;10.128;2024-02-23T14:55:29;4.40;99.90
6377;DHT22;3221;48.858;10.128;2024-02-23T14:57:56;4.30;99.90
6377;DHT22;3221;48.858;10.128;2024-02-23T15:00:25;4.30;99.90
6377;DHT22;3221;48.858;10.128;2024-02-23T15:02:52;4.30;99.90
6377;DHT22;3221;48.858;10.128;2024-02-23T15:05:19;4.30;99.90
6377;DHT22;3221;48.858;10.128;2024-02-23T15:07:46;4.20;99.90
6377;DHT22;3221;48.858;10.128;2024-02-23T15:10:13;4.20;99.90
6377;DHT22;3221;48.858;10.128;2024-02-23T15:12:40;4.30;99.90
6377;DHT22;3221;48.858;10.128;2024-02-23T15:15:08;4.30;99.90
6377;DHT22;3221;48.858;10.128;2024-02-23T15:17:36;4.30;99.90
6377;DHT22;3221;48.858;10.128;2024-02-23T15:20:03;4.20;99.90
6377;DHT22;3221;48.858;10.128;2024-02-23T15:22:31;4.40;99.90
6377;DHT22;3221;48.858;10.128;2024-02-23T15:24:58;4.40;99.90
6377;DHT22;3221;48.858;10.128;2024-02-23T15:27:26;4.40;99.90
6377;DHT22;3221;48.858;10.128;2024-02-23T15:29:54;4.30;99.90
6377;DHT22;3221;48.858;10.128;2024-02-23T15:32:21;4.20;99.90
6377;DHT22;3221;48.858;10.128;2024-02-23T15:34:49;4.20;99.90
6377;DHT22;3221;48.858;10.128;2024-02-23T15:37:15;4.20;99.90
6377;DHT22;3221;48.858;10.128;2024-02-23T15:39:42;4.40;99.90
6377;DHT22;3221;48.858;10.128;2024-02-23T15:42:09;4.20;99.90
6377;DHT22;3221;48.858;10.128;2024-02-23T15:44:36;4.40;99.90
6377;DHT22;3221;48.858;10.128;2024-02-23T15:47:03;4.30;99.90
6377;DHT22;3221;48.858;10.128;2024-02-23T15:49:30;4.30;99.90
6377;DHT22;3221;48.858;10.128;2024-02-23T15:52:17;4.30;99.90
6377;DHT22;3221;48.858;10.128;2024-02-23T15:54:44;4.40;99.90
6377;DHT22;3221;48.858;10.128;2024-02-23T15:57:11;4.50;99.90
6377;DHT22;3221;48.858;10.128;2024-02-23T15:59:39;4.20;99.90
6377;DHT22;3221;48.858;10.128;2024-02-23T16:02:07;4.20;99.90
6377;DHT22;3221;48.858;10.128;2024-02-23T16:04:34;4.10;99.90